sensor_id;sensor_type;location;lat;lon;timestamp;P1;durP1;ratioP1;P2;durP2;ratioP2
20725;SDS011;10524;48.132;8.518;2022-07-29T00:00:42;24.30;;;21.70;;
20725;SDS011;10524;48.132;8.518;2022-07-29T00:03:11;27.70;;;24.70;;
20725;SDS011;10524;48.132;8.518;2022-07-29T00:05:40;30.83;;;24.65;;
20725;SDS011;10524;48.132;8.518;2022-07-29T00:08:06;23.73;;;21.33;;
20725;SDS011;10524;48.132;8.518;2022-07-29T00:10:33;22.55;;;19.70;;
20725;SDS011;10524;48.132;8.518;2022-07-29T00:12:59;24.23;;;21.60;;
20725;SDS011;10524;48.132;8.518;2022-07-29T00:15:25;25.73;;;23.13;;
20725;SDS011;10524;48.132;8.518;2022-07-29T00:17:51;27.40;;;24.17;;
20725;SDS011;10524;48.132;8.518;2022-07-29T00:20:16;27.05;;;24.25;;
20725;SDS011;10524;48.132;8.518;2022-07-29T00:22:42;25.25;;;22.60;;
20725;SDS011;10524;48.132;8.518;2022-07-29T00:25:08;27.25;;;23.52;;
20725;SDS011;10524;48.132;8.518;2022-07-29T00:27:34;24.65;;;22.20;;
20725;SDS011;10524;48.132;8.518;2022-07-29T00:30:00;22.80;;;20.60;;
20725;SDS011;10524;48.132;8.518;2022-07-29T00:32:26;22.35;;;19.92;;
20725;SDS011;10524;48.132;8.518;2022-07-29T00:34:52;22.17;;;19.90;;
20725;SDS011;10524;48.132;8.518;2022-07-29T00:37:36;20.45;;;18.30;;
20725;SDS011;10524;48.132;8.518;2022-07-29T00:40:02;20.73;;;18.80;;
20725;SDS011;10524;48.132;8.518;2022-07-29T00:42:28;21.48;;;19.38;;
20725;SDS011;10524;48.132;8.518;2022-07-29T00:44:54;20.88;;;18.80;;
20725;SDS011;10524;48.132;8.518;2022-07-29T00:47:19;24.73;;;22.13;;
20725;SDS011;10524;48.132;8.518;2022-07-29T00:49:45;23.35;;;21.05;;
20725;SDS011;10524;48.132;8.518;2022-07-29T00:52:11;25.52;;;22.80;;
20725;SDS011;10524;48.132;8.518;2022-07-29T00:54:38;24.85;;;22.27;;
20725;SDS011;10524;48.132;8.518;2022-07-29T00:57:05;26.85;;;22.35;;
20725;SDS011;10524;48.132;8.518;2022-07-29T00:59:32;23.58;;;20.67;;
20725;SDS011;10524;48.132;8.518;2022-07-29T01:01:58;25.17;;;21.95;;
20725;SDS011;10524;48.132;8.518;2022-07-29T01:04:24;24.80;;;21.08;;
20725;SDS011;10524;48.132;8.518;2022-07-29T01:06:49;23.60;;;21.25;;
20725;SDS011;10524;48.132;8.518;2022-07-29T01:09:16;24.52;;;21.90;;
20725;SDS011;10524;48.132;8.518;2022-07-29T01:11:43;24.73;;;22.13;;
20725;SDS011;10524;48.132;8.518;2022-07-29T01:14:12;23.40;;;21.00;;
20725;SDS011;10524;48.132;8.518;2022-07-29T01:16:42;21.80;;;19.50;;
20725;SDS011;10524;48.132;8.518;2022-07-29T01:30:34;23.98;;;21.58;;
20725;SDS011;10524;48.132;8.518;2022-07-29T01:33:06;24.95;;;22.45;;
20725;SDS011;10524;48.132;8.518;2022-07-29T01:35:38;26.00;;;22.40;;
20725;SDS011;10524;48.132;8.518;2022-07-29T01:43:10;24.40;;;21.70;;
20725;SDS011;10524;48.132;8.518;2022-07-29T01:45:50;25.00;;;22.30;;
20725;SDS011;10524;48.132;8.518;2022-07-29T01:48:49;20.80;;;18.40;;
20725;SDS011;10524;48.132;8.518;2022-07-29T01:51:27;22.05;;;19.80;;
20725;SDS011;10524;48.132;8.518;2022-07-29T01:56:26;24.48;;;21.63;;
20725;SDS011;10524;48.132;8.518;2022-07-29T01:58:55;23.45;;;20.92;;
20725;SDS011;10524;48.132;8.518;2022-07-29T02:01:22;21.55;;;19.35;;
20725;SDS011;10524;48.132;8.518;2022-07-29T02:03:50;21.65;;;19.42;;
20725;SDS011;10524;48.132;8.518;2022-07-29T02:06:18;23.58;;;21.05;;
20725;SDS011;10524;48.132;8.518;2022-07-29T02:08:46;21.58;;;19.40;;
20725;SDS011;10524;48.132;8.518;2022-07-29T02:11:13;20.10;;;18.20;;
20725;SDS011;10524;48.132;8.518;2022-07-29T02:13:39;20.65;;;18.63;;
20725;SDS011;10524;48.132;8.518;2022-07-29T02:16:07;20.33;;;18.23;;
20725;SDS011;10524;48.132;8.518;2022-07-29T02:18:36;21.92;;;19.67;;
20725;SDS011;10524;48.132;8.518;2022-07-29T02:21:04;27.15;;;21.17;;
20725;SDS011;10524;48.132;8.518;2022-07-29T02:23:30;26.15;;;22.83;;
20725;SDS011;10524;48.132;8.518;2022-07-29T02:25:57;29.50;;;23.17;;
20725;SDS011;10524;48.132;8.518;2022-07-29T02:28:25;22.25;;;19.95;;
20725;SDS011;10524;48.132;8.518;2022-07-29T02:30:53;28.02;;;23.40;;
20725;SDS011;10524;48.132;8.518;2022-07-29T02:33:22;28.73;;;24.55;;
20725;SDS011;10524;48.132;8.518;2022-07-29T02:35:49;26.60;;;22.80;;
20725;SDS011;10524;48.132;8.518;2022-07-29T02:38:16;25.02;;;22.42;;
20725;SDS011;10524;48.132;8.518;2022-07-29T02:41:08;26.20;;;23.50;;
20725;SDS011;10524;48.132;8.518;2022-07-29T02:43:36;28.10;;;24.17;;
20725;SDS011;10524;48.132;8.518;2022-07-29T02:46:04;23.65;;;21.13;;
20725;SDS011;10524;48.132;8.518;2022-07-29T02:49:35;26.00;;;23.00;;
20725;SDS011;10524;48.132;8.518;2022-07-29T02:51:42;24.85;;;21.90;;
20725;SDS011;10524;48.132;8.518;2022-07-29T02:56:36;22.48;;;20.10;;
20725;SDS011;10524;48.132;8.518;2022-07-29T02:59:06;21.90;;;19.58;;
20725;SDS011;10524;48.132;8.518;2022-07-29T03:01:35;22.90;;;20.35;;
20725;SDS011;10524;48.132;8.518;2022-07-29T03:04:06;23.58;;;20.95;;
20725;SDS011;10524;48.132;8.518;2022-07-29T03:06:34;23.83;;;19.85;;
20725;SDS011;10524;48.132;8.518;2022-07-29T03:09:02;22.75;;;20.33;;
20725;SDS011;10524;48.132;8.518;2022-07-29T03:11:28;21.77;;;19.40;;
20725;SDS011;10524;48.132;8.518;2022-07-29T03:13:54;20.83;;;18.73;;
20725;SDS011;10524;48.132;8.518;2022-07-29T03:16:21;21.25;;;19.10;;
20725;SDS011;10524;48.132;8.518;2022-07-29T03:18:48;23.27;;;20.98;;
20725;SDS011;10524;48.132;8.518;2022-07-29T03:21:15;20.92;;;18.73;;
20725;SDS011;10524;48.132;8.518;2022-07-29T03:23:44;21.55;;;18.15;;
20725;SDS011;10524;48.132;8.518;2022-07-29T03:26:10;25.77;;;20.83;;
20725;SDS011;10524;48.132;8.518;2022-07-29T03:28:36;26.63;;;23.73;;
20725;SDS011;10524;48.132;8.518;2022-07-29T03:31:02;27.38;;;24.27;;
20725;SDS011;10524;48.132;8.518;2022-07-29T03:33:28;28.90;;;25.58;;
20725;SDS011;10524;48.132;8.518;2022-07-29T03:35:55;25.67;;;22.98;;
20725;SDS011;10524;48.132;8.518;2022-07-29T03:38:21;22.73;;;20.20;;
20725;SDS011;10524;48.132;8.518;2022-07-29T03:41:02;23.38;;;20.63;;
20725;SDS011;10524;48.132;8.518;2022-07-29T03:43:34;24.80;;;21.90;;
20725;SDS011;10524;48.132;8.518;2022-07-29T03:46:02;25.27;;;22.50;;
20725;SDS011;10524;48.132;8.518;2022-07-29T03:48:31;21.15;;;18.92;;
20725;SDS011;10524;48.132;8.518;2022-07-29T03:51:00;22.83;;;19.80;;
20725;SDS011;10524;48.132;8.518;2022-07-29T03:53:26;22.17;;;19.88;;
20725;SDS011;10524;48.132;8.518;2022-07-29T03:55:53;21.38;;;19.17;;
20725;SDS011;10524;48.132;8.518;2022-07-29T03:58:22;23.58;;;21.05;;
20725;SDS011;10524;48.132;8.518;2022-07-29T04:00:49;22.63;;;20.20;;
20725;SDS011;10524;48.132;8.518;2022-07-29T04:03:15;24.10;;;20.17;;
20725;SDS011;10524;48.132;8.518;2022-07-29T04:05:41;22.15;;;19.95;;
20725;SDS011;10524;48.132;8.518;2022-07-29T04:08:06;22.75;;;19.50;;
20725;SDS011;10524;48.132;8.518;2022-07-29T04:10:32;20.73;;;18.52;;
20725;SDS011;10524;48.132;8.518;2022-07-29T04:12:58;23.25;;;20.25;;
20725;SDS011;10524;48.132;8.518;2022-07-29T04:15:24;25.17;;;22.25;;
20725;SDS011;10524;48.132;8.518;2022-07-29T04:17:50;25.73;;;22.17;;
20725;SDS011;10524;48.132;8.518;2022-07-29T04:20:16;26.05;;;20.98;;
20725;SDS011;10524;48.132;8.518;2022-07-29T04:22:42;22.27;;;19.75;;
20725;SDS011;10524;48.132;8.518;2022-07-29T04:25:07;21.88;;;17.80;;
20725;SDS011;10524;48.132;8.518;2022-07-29T04:27:33;16.55;;;14.88;;
20725;SDS011;10524;48.132;8.518;2022-07-29T04:29:59;16.40;;;14.43;;
20725;SDS011;10524;48.132;8.518;2022-07-29T04:32:25;15.70;;;13.00;;
20725;SDS011;10524;48.132;8.518;2022-07-29T04:34:51;14.35;;;12.85;;
20725;SDS011;10524;48.132;8.518;2022-07-29T04:37:17;13.75;;;12.35;;
20725;SDS011;10524;48.132;8.518;2022-07-29T04:39:42;13.55;;;12.05;;
20725;SDS011;10524;48.132;8.518;2022-07-29T04:42:08;13.35;;;12.05;;
20725;SDS011;10524;48.132;8.518;2022-07-29T04:44:33;14.43;;;13.13;;
20725;SDS011;10524;48.132;8.518;2022-07-29T04:46:59;14.80;;;13.32;;
20725;SDS011;10524;48.132;8.518;2022-07-29T04:49:25;14.55;;;13.20;;
20725;SDS011;10524;48.132;8.518;2022-07-29T04:51:50;13.10;;;11.90;;
20725;SDS011;10524;48.132;8.518;2022-07-29T04:54:16;13.10;;;11.88;;
20725;SDS011;10524;48.132;8.518;2022-07-29T04:56:42;12.10;;;10.75;;
20725;SDS011;10524;48.132;8.518;2022-07-29T04:59:07;12.05;;;10.95;;
20725;SDS011;10524;48.132;8.518;2022-07-29T05:01:33;12.35;;;11.13;;
20725;SDS011;10524;48.132;8.518;2022-07-29T05:03:59;10.95;;;9.95;;
20725;SDS011;10524;48.132;8.518;2022-07-29T05:06:25;10.80;;;9.25;;
20725;SDS011;10524;48.132;8.518;2022-07-29T05:08:50;8.80;;;7.95;;
20725;SDS011;10524;48.132;8.518;2022-07-29T05:11:16;8.50;;;7.70;;
20725;SDS011;10524;48.132;8.518;2022-07-29T05:13:41;8.68;;;7.88;;
20725;SDS011;10524;48.132;8.518;2022-07-29T05:16:07;9.77;;;8.57;;
20725;SDS011;10524;48.132;8.518;2022-07-29T05:18:33;12.05;;;8.25;;
20725;SDS011;10524;48.132;8.518;2022-07-29T05:20:59;10.88;;;9.00;;
20725;SDS011;10524;48.132;8.518;2022-07-29T05:23:25;10.13;;;9.13;;
20725;SDS011;10524;48.132;8.518;2022-07-29T05:25:50;10.52;;;9.52;;
20725;SDS011;10524;48.132;8.518;2022-07-29T05:28:16;10.30;;;9.40;;
20725;SDS011;10524;48.132;8.518;2022-07-29T05:30:42;11.00;;;9.98;;
20725;SDS011;10524;48.132;8.518;2022-07-29T05:33:09;10.18;;;8.93;;
20725;SDS011;10524;48.132;8.518;2022-07-29T05:35:35;10.13;;;8.95;;
20725;SDS011;10524;48.132;8.518;2022-07-29T05:38:02;9.38;;;7.50;;
20725;SDS011;10524;48.132;8.518;2022-07-29T05:40:28;6.57;;;5.93;;
20725;SDS011;10524;48.132;8.518;2022-07-29T05:42:54;5.30;;;4.80;;
20725;SDS011;10524;48.132;8.518;2022-07-29T05:45:19;6.15;;;5.57;;
20725;SDS011;10524;48.132;8.518;2022-07-29T05:47:45;6.47;;;5.68;;
20725;SDS011;10524;48.132;8.518;2022-07-29T05:50:11;5.15;;;4.75;;
20725;SDS011;10524;48.132;8.518;2022-07-29T05:52:37;6.18;;;5.57;;
20725;SDS011;10524;48.132;8.518;2022-07-29T05:55:03;6.53;;;5.90;;
20725;SDS011;10524;48.132;8.518;2022-07-29T05:57:30;6.85;;;6.15;;
20725;SDS011;10524;48.132;8.518;2022-07-29T05:59:56;6.93;;;5.85;;
20725;SDS011;10524;48.132;8.518;2022-07-29T06:02:21;7.55;;;6.00;;
20725;SDS011;10524;48.132;8.518;2022-07-29T06:04:47;6.15;;;5.43;;
20725;SDS011;10524;48.132;8.518;2022-07-29T06:07:13;7.53;;;6.70;;
20725;SDS011;10524;48.132;8.518;2022-07-29T06:09:39;6.93;;;6.22;;
20725;SDS011;10524;48.132;8.518;2022-07-29T06:12:04;5.90;;;5.30;;
20725;SDS011;10524;48.132;8.518;2022-07-29T06:14:30;9.32;;;6.05;;
20725;SDS011;10524;48.132;8.518;2022-07-29T06:16:57;6.97;;;5.93;;
20725;SDS011;10524;48.132;8.518;2022-07-29T06:19:23;6.68;;;4.95;;
20725;SDS011;10524;48.132;8.518;2022-07-29T06:21:48;7.88;;;4.68;;
20725;SDS011;10524;48.132;8.518;2022-07-29T06:24:14;6.18;;;4.95;;
20725;SDS011;10524;48.132;8.518;2022-07-29T06:26:41;7.22;;;5.57;;
20725;SDS011;10524;48.132;8.518;2022-07-29T06:29:07;5.18;;;4.63;;
20725;SDS011;10524;48.132;8.518;2022-07-29T06:31:33;5.25;;;4.32;;
20725;SDS011;10524;48.132;8.518;2022-07-29T06:33:59;4.97;;;4.47;;
20725;SDS011;10524;48.132;8.518;2022-07-29T06:36:25;4.90;;;4.40;;
20725;SDS011;10524;48.132;8.518;2022-07-29T06:38:50;4.85;;;4.35;;
20725;SDS011;10524;48.132;8.518;2022-07-29T06:41:16;5.90;;;4.22;;
20725;SDS011;10524;48.132;8.518;2022-07-29T06:43:42;5.72;;;4.65;;
20725;SDS011;10524;48.132;8.518;2022-07-29T06:46:12;5.13;;;4.63;;
20725;SDS011;10524;48.132;8.518;2022-07-29T06:48:39;5.65;;;5.03;;
20725;SDS011;10524;48.132;8.518;2022-07-29T06:51:07;5.07;;;4.32;;
20725;SDS011;10524;48.132;8.518;2022-07-29T06:53:33;5.25;;;4.75;;
20725;SDS011;10524;48.132;8.518;2022-07-29T06:56:00;5.30;;;4.40;;
20725;SDS011;10524;48.132;8.518;2022-07-29T06:58:26;4.95;;;4.45;;
20725;SDS011;10524;48.132;8.518;2022-07-29T07:00:53;6.63;;;4.60;;
20725;SDS011;10524;48.132;8.518;2022-07-29T07:03:20;4.55;;;4.10;;
20725;SDS011;10524;48.132;8.518;2022-07-29T07:05:46;5.00;;;4.22;;
20725;SDS011;10524;48.132;8.518;2022-07-29T07:08:12;7.45;;;4.75;;
20725;SDS011;10524;48.132;8.518;2022-07-29T07:10:38;6.63;;;4.63;;
20725;SDS011;10524;48.132;8.518;2022-07-29T07:13:05;4.53;;;3.83;;
20725;SDS011;10524;48.132;8.518;2022-07-29T07:15:31;5.43;;;4.38;;
20725;SDS011;10524;48.132;8.518;2022-07-29T07:17:57;4.45;;;3.60;;
20725;SDS011;10524;48.132;8.518;2022-07-29T07:20:23;4.90;;;4.07;;
20725;SDS011;10524;48.132;8.518;2022-07-29T07:22:49;5.00;;;4.50;;
20725;SDS011;10524;48.132;8.518;2022-07-29T07:25:14;6.72;;;4.80;;
20725;SDS011;10524;48.132;8.518;2022-07-29T07:27:42;6.28;;;4.90;;
20725;SDS011;10524;48.132;8.518;2022-07-29T07:30:08;5.38;;;4.88;;
20725;SDS011;10524;48.132;8.518;2022-07-29T07:32:34;5.10;;;4.70;;
20725;SDS011;10524;48.132;8.518;2022-07-29T07:35:01;6.18;;;5.05;;
20725;SDS011;10524;48.132;8.518;2022-07-29T07:37:28;7.55;;;5.20;;
20725;SDS011;10524;48.132;8.518;2022-07-29T07:39:54;6.25;;;4.30;;
20725;SDS011;10524;48.132;8.518;2022-07-29T07:42:19;6.30;;;4.50;;
20725;SDS011;10524;48.132;8.518;2022-07-29T07:44:45;3.60;;;3.30;;
20725;SDS011;10524;48.132;8.518;2022-07-29T07:47:13;5.03;;;2.80;;
20725;SDS011;10524;48.132;8.518;2022-07-29T07:49:39;4.18;;;2.92;;
20725;SDS011;10524;48.132;8.518;2022-07-29T07:52:04;5.30;;;3.03;;
20725;SDS011;10524;48.132;8.518;2022-07-29T07:54:30;3.83;;;2.45;;
20725;SDS011;10524;48.132;8.518;2022-07-29T07:56:56;4.13;;;2.60;;
20725;SDS011;10524;48.132;8.518;2022-07-29T07:59:22;4.68;;;2.33;;
20725;SDS011;10524;48.132;8.518;2022-07-29T08:01:49;2.67;;;2.30;;
20725;SDS011;10524;48.132;8.518;2022-07-29T08:04:15;3.40;;;2.55;;
20725;SDS011;10524;48.132;8.518;2022-07-29T08:06:40;4.88;;;2.50;;
20725;SDS011;10524;48.132;8.518;2022-07-29T08:09:06;4.60;;;2.67;;
20725;SDS011;10524;48.132;8.518;2022-07-29T08:11:32;4.18;;;2.88;;
20725;SDS011;10524;48.132;8.518;2022-07-29T08:13:57;3.10;;;2.80;;
20725;SDS011;10524;48.132;8.518;2022-07-29T08:16:23;3.42;;;2.92;;
20725;SDS011;10524;48.132;8.518;2022-07-29T08:18:50;4.22;;;2.88;;
20725;SDS011;10524;48.132;8.518;2022-07-29T08:21:16;6.93;;;3.13;;
20725;SDS011;10524;48.132;8.518;2022-07-29T08:23:43;4.45;;;3.30;;
20725;SDS011;10524;48.132;8.518;2022-07-29T08:26:18;7.18;;;4.15;;
20725;SDS011;10524;48.132;8.518;2022-07-29T08:28:45;4.68;;;4.22;;
20725;SDS011;10524;48.132;8.518;2022-07-29T08:31:14;4.88;;;4.07;;
20725;SDS011;10524;48.132;8.518;2022-07-29T08:33:40;7.88;;;4.57;;
20725;SDS011;10524;48.132;8.518;2022-07-29T08:36:06;4.10;;;3.70;;
20725;SDS011;10524;48.132;8.518;2022-07-29T08:38:32;4.28;;;3.63;;
20725;SDS011;10524;48.132;8.518;2022-07-29T08:40:58;7.63;;;3.47;;
20725;SDS011;10524;48.132;8.518;2022-07-29T08:43:26;5.80;;;3.25;;
20725;SDS011;10524;48.132;8.518;2022-07-29T08:45:53;6.78;;;3.08;;
20725;SDS011;10524;48.132;8.518;2022-07-29T08:48:20;5.63;;;3.00;;
20725;SDS011;10524;48.132;8.518;2022-07-29T08:50:47;5.68;;;2.97;;
20725;SDS011;10524;48.132;8.518;2022-07-29T08:53:17;4.80;;;2.88;;
20725;SDS011;10524;48.132;8.518;2022-07-29T08:55:43;3.40;;;2.70;;
20725;SDS011;10524;48.132;8.518;2022-07-29T08:58:11;3.42;;;2.90;;
20725;SDS011;10524;48.132;8.518;2022-07-29T09:00:43;5.25;;;3.22;;
20725;SDS011;10524;48.132;8.518;2022-07-29T09:03:12;5.47;;;3.13;;
20725;SDS011;10524;48.132;8.518;2022-07-29T09:05:44;6.25;;;3.30;;
20725;SDS011;10524;48.132;8.518;2022-07-29T09:08:10;6.60;;;3.30;;
20725;SDS011;10524;48.132;8.518;2022-07-29T09:10:38;5.50;;;3.28;;
20725;SDS011;10524;48.132;8.518;2022-07-29T09:13:04;5.95;;;3.00;;
20725;SDS011;10524;48.132;8.518;2022-07-29T09:15:30;6.82;;;2.80;;
20725;SDS011;10524;48.132;8.518;2022-07-29T09:17:55;4.18;;;3.20;;
20725;SDS011;10524;48.132;8.518;2022-07-29T09:20:23;5.05;;;2.92;;
20725;SDS011;10524;48.132;8.518;2022-07-29T09:22:50;5.78;;;2.88;;
20725;SDS011;10524;48.132;8.518;2022-07-29T09:25:37;3.60;;;2.70;;
20725;SDS011;10524;48.132;8.518;2022-07-29T09:28:10;4.60;;;3.25;;
20725;SDS011;10524;48.132;8.518;2022-07-29T09:30:56;4.15;;;3.10;;
20725;SDS011;10524;48.132;8.518;2022-07-29T09:33:24;4.65;;;3.20;;
20725;SDS011;10524;48.132;8.518;2022-07-29T09:36:03;4.25;;;3.20;;
20725;SDS011;10524;48.132;8.518;2022-07-29T09:38:30;3.40;;;3.10;;
20725;SDS011;10524;48.132;8.518;2022-07-29T09:41:00;5.15;;;3.10;;
20725;SDS011;10524;48.132;8.518;2022-07-29T09:43:27;5.40;;;3.58;;
20725;SDS011;10524;48.132;8.518;2022-07-29T09:45:53;5.32;;;3.30;;
20725;SDS011;10524;48.132;8.518;2022-07-29T09:48:21;5.82;;;3.03;;
20725;SDS011;10524;48.132;8.518;2022-07-29T09:50:48;4.13;;;3.10;;
20725;SDS011;10524;48.132;8.518;2022-07-29T09:53:36;8.55;;;3.63;;
20725;SDS011;10524;48.132;8.518;2022-07-29T09:56:06;3.15;;;2.85;;
20725;SDS011;10524;48.132;8.518;2022-07-29T09:58:31;6.60;;;3.88;;
20725;SDS011;10524;48.132;8.518;2022-07-29T10:01:00;3.92;;;3.38;;
20725;SDS011;10524;48.132;8.518;2022-07-29T10:03:27;4.20;;;3.85;;
20725;SDS011;10524;48.132;8.518;2022-07-29T10:06:09;4.00;;;3.28;;
20725;SDS011;10524;48.132;8.518;2022-07-29T10:08:36;4.57;;;4.05;;
20725;SDS011;10524;48.132;8.518;2022-07-29T10:11:12;5.68;;;4.45;;
20725;SDS011;10524;48.132;8.518;2022-07-29T10:13:40;6.25;;;4.28;;
20725;SDS011;10524;48.132;8.518;2022-07-29T10:16:07;5.10;;;4.57;;
20725;SDS011;10524;48.132;8.518;2022-07-29T10:18:34;5.45;;;4.20;;
20725;SDS011;10524;48.132;8.518;2022-07-29T10:21:00;5.10;;;4.10;;
20725;SDS011;10524;48.132;8.518;2022-07-29T10:23:27;4.93;;;4.07;;
20725;SDS011;10524;48.132;8.518;2022-07-29T10:25:54;5.18;;;3.85;;
20725;SDS011;10524;48.132;8.518;2022-07-29T10:28:19;7.53;;;4.38;;
20725;SDS011;10524;48.132;8.518;2022-07-29T10:30:45;6.30;;;3.72;;
20725;SDS011;10524;48.132;8.518;2022-07-29T10:38:29;4.28;;;3.53;;
20725;SDS011;10524;48.132;8.518;2022-07-29T10:44:01;5.63;;;3.00;;
20725;SDS011;10524;48.132;8.518;2022-07-29T10:46:37;4.70;;;2.95;;
20725;SDS011;10524;48.132;8.518;2022-07-29T10:54:19;4.38;;;2.80;;
20725;SDS011;10524;48.132;8.518;2022-07-29T10:56:56;5.55;;;3.15;;
20725;SDS011;10524;48.132;8.518;2022-07-29T11:05:04;3.38;;;2.50;;
20725;SDS011;10524;48.132;8.518;2022-07-29T11:07:31;4.13;;;2.30;;
20725;SDS011;10524;48.132;8.518;2022-07-29T11:15:11;4.25;;;2.50;;
20725;SDS011;10524;48.132;8.518;2022-07-29T11:23:23;2.80;;;2.45;;
20725;SDS011;10524;48.132;8.518;2022-07-29T11:31:14;4.10;;;2.05;;
20725;SDS011;10524;48.132;8.518;2022-07-29T11:33:44;3.70;;;2.10;;
20725;SDS011;10524;48.132;8.518;2022-07-29T11:36:11;3.72;;;2.38;;
20725;SDS011;10524;48.132;8.518;2022-07-29T11:38:38;3.03;;;2.40;;
20725;SDS011;10524;48.132;8.518;2022-07-29T11:44:00;2.47;;;2.10;;
20725;SDS011;10524;48.132;8.518;2022-07-29T11:49:24;4.57;;;2.35;;
20725;SDS011;10524;48.132;8.518;2022-07-29T11:51:51;8.50;;;2.30;;
20725;SDS011;10524;48.132;8.518;2022-07-29T11:54:21;5.00;;;2.28;;
20725;SDS011;10524;48.132;8.518;2022-07-29T11:56:51;3.45;;;2.10;;
20725;SDS011;10524;48.132;8.518;2022-07-29T11:59:17;3.67;;;2.00;;
20725;SDS011;10524;48.132;8.518;2022-07-29T12:01:58;5.07;;;2.17;;
20725;SDS011;10524;48.132;8.518;2022-07-29T12:04:24;5.18;;;1.92;;
20725;SDS011;10524;48.132;8.518;2022-07-29T12:06:52;5.57;;;2.22;;
20725;SDS011;10524;48.132;8.518;2022-07-29T12:09:19;3.10;;;2.38;;
20725;SDS011;10524;48.132;8.518;2022-07-29T12:11:45;3.15;;;2.33;;
20725;SDS011;10524;48.132;8.518;2022-07-29T12:14:27;3.13;;;2.42;;
20725;SDS011;10524;48.132;8.518;2022-07-29T12:19:20;4.38;;;2.45;;
20725;SDS011;10524;48.132;8.518;2022-07-29T12:24:16;5.28;;;2.70;;
20725;SDS011;10524;48.132;8.518;2022-07-29T12:26:49;4.35;;;2.90;;
20725;SDS011;10524;48.132;8.518;2022-07-29T12:29:18;4.32;;;2.67;;
20725;SDS011;10524;48.132;8.518;2022-07-29T12:31:44;5.13;;;2.25;;
20725;SDS011;10524;48.132;8.518;2022-07-29T12:34:15;4.70;;;2.72;;
20725;SDS011;10524;48.132;8.518;2022-07-29T12:36:41;5.25;;;2.88;;
20725;SDS011;10524;48.132;8.518;2022-07-29T12:39:08;3.22;;;2.47;;
20725;SDS011;10524;48.132;8.518;2022-07-29T12:41:34;4.30;;;2.30;;
20725;SDS011;10524;48.132;8.518;2022-07-29T12:44:00;6.20;;;2.50;;
20725;SDS011;10524;48.132;8.518;2022-07-29T12:46:26;4.03;;;2.58;;
20725;SDS011;10524;48.132;8.518;2022-07-29T12:48:52;3.92;;;2.50;;
20725;SDS011;10524;48.132;8.518;2022-07-29T12:51:37;4.32;;;2.50;;
20725;SDS011;10524;48.132;8.518;2022-07-29T12:54:05;5.13;;;2.60;;
20725;SDS011;10524;48.132;8.518;2022-07-29T12:56:32;5.32;;;2.33;;
20725;SDS011;10524;48.132;8.518;2022-07-29T12:58:59;4.82;;;2.28;;
20725;SDS011;10524;48.132;8.518;2022-07-29T13:01:25;7.28;;;2.20;;
20725;SDS011;10524;48.132;8.518;2022-07-29T13:06:29;7.03;;;2.33;;
20725;SDS011;10524;48.132;8.518;2022-07-29T13:09:06;4.25;;;2.22;;
20725;SDS011;10524;48.132;8.518;2022-07-29T13:11:47;4.07;;;2.20;;
20725;SDS011;10524;48.132;8.518;2022-07-29T13:14:31;5.20;;;2.20;;
20725;SDS011;10524;48.132;8.518;2022-07-29T13:19:34;3.55;;;2.15;;
20725;SDS011;10524;48.132;8.518;2022-07-29T13:22:08;3.58;;;2.10;;
20725;SDS011;10524;48.132;8.518;2022-07-29T13:24:44;2.78;;;2.10;;
20725;SDS011;10524;48.132;8.518;2022-07-29T13:27:10;3.58;;;2.10;;
20725;SDS011;10524;48.132;8.518;2022-07-29T13:29:36;6.53;;;2.20;;
20725;SDS011;10524;48.132;8.518;2022-07-29T13:32:05;3.72;;;2.20;;
20725;SDS011;10524;48.132;8.518;2022-07-29T13:34:32;5.35;;;2.47;;
20725;SDS011;10524;48.132;8.518;2022-07-29T13:36:57;4.00;;;2.40;;
20725;SDS011;10524;48.132;8.518;2022-07-29T13:39:23;3.75;;;2.03;;
20725;SDS011;10524;48.132;8.518;2022-07-29T13:41:49;5.20;;;2.22;;
20725;SDS011;10524;48.132;8.518;2022-07-29T13:44:14;4.43;;;2.58;;
20725;SDS011;10524;48.132;8.518;2022-07-29T13:46:40;3.65;;;2.38;;
20725;SDS011;10524;48.132;8.518;2022-07-29T13:49:05;5.15;;;2.50;;
20725;SDS011;10524;48.132;8.518;2022-07-29T13:51:31;3.35;;;2.22;;
20725;SDS011;10524;48.132;8.518;2022-07-29T13:53:57;5.53;;;2.75;;
20725;SDS011;10524;48.132;8.518;2022-07-29T13:56:23;3.90;;;2.35;;
20725;SDS011;10524;48.132;8.518;2022-07-29T13:58:48;5.43;;;2.30;;
20725;SDS011;10524;48.132;8.518;2022-07-29T14:01:14;3.25;;;2.40;;
20725;SDS011;10524;48.132;8.518;2022-07-29T14:03:40;3.40;;;2.35;;
20725;SDS011;10524;48.132;8.518;2022-07-29T14:06:07;4.72;;;2.50;;
20725;SDS011;10524;48.132;8.518;2022-07-29T14:08:33;4.57;;;2.70;;
20725;SDS011;10524;48.132;8.518;2022-07-29T14:10:59;3.75;;;2.45;;
20725;SDS011;10524;48.132;8.518;2022-07-29T14:13:25;5.57;;;2.60;;
20725;SDS011;10524;48.132;8.518;2022-07-29T14:15:51;4.28;;;2.50;;
20725;SDS011;10524;48.132;8.518;2022-07-29T14:18:17;3.47;;;2.30;;
20725;SDS011;10524;48.132;8.518;2022-07-29T14:20:42;6.20;;;2.70;;
20725;SDS011;10524;48.132;8.518;2022-07-29T14:23:08;4.40;;;2.53;;
20725;SDS011;10524;48.132;8.518;2022-07-29T14:25:33;3.55;;;2.40;;
20725;SDS011;10524;48.132;8.518;2022-07-29T14:27:59;3.80;;;2.40;;
20725;SDS011;10524;48.132;8.518;2022-07-29T14:30:24;2.42;;;2.13;;
20725;SDS011;10524;48.132;8.518;2022-07-29T14:32:50;5.32;;;2.30;;
20725;SDS011;10524;48.132;8.518;2022-07-29T14:35:16;4.50;;;2.40;;
20725;SDS011;10524;48.132;8.518;2022-07-29T14:37:41;4.57;;;2.30;;
20725;SDS011;10524;48.132;8.518;2022-07-29T14:40:08;5.38;;;2.60;;
20725;SDS011;10524;48.132;8.518;2022-07-29T14:42:34;3.53;;;2.35;;
20725;SDS011;10524;48.132;8.518;2022-07-29T14:45:01;6.85;;;3.05;;
20725;SDS011;10524;48.132;8.518;2022-07-29T14:47:26;7.05;;;2.58;;
20725;SDS011;10524;48.132;8.518;2022-07-29T14:49:52;4.43;;;2.10;;
20725;SDS011;10524;48.132;8.518;2022-07-29T14:52:18;5.13;;;2.40;;
20725;SDS011;10524;48.132;8.518;2022-07-29T14:54:43;4.13;;;2.60;;
20725;SDS011;10524;48.132;8.518;2022-07-29T14:57:09;3.97;;;2.35;;
20725;SDS011;10524;48.132;8.518;2022-07-29T14:59:36;5.07;;;2.35;;
20725;SDS011;10524;48.132;8.518;2022-07-29T15:02:01;4.70;;;2.42;;
20725;SDS011;10524;48.132;8.518;2022-07-29T15:04:27;6.55;;;2.33;;
20725;SDS011;10524;48.132;8.518;2022-07-29T15:06:53;4.45;;;2.20;;
20725;SDS011;10524;48.132;8.518;2022-07-29T15:09:19;4.70;;;2.40;;
20725;SDS011;10524;48.132;8.518;2022-07-29T15:11:45;8.68;;;2.30;;
20725;SDS011;10524;48.132;8.518;2022-07-29T15:14:11;3.97;;;2.30;;
20725;SDS011;10524;48.132;8.518;2022-07-29T15:16:37;4.07;;;2.30;;
20725;SDS011;10524;48.132;8.518;2022-07-29T15:19:04;3.90;;;2.40;;
20725;SDS011;10524;48.132;8.518;2022-07-29T15:21:30;3.03;;;2.08;;
20725;SDS011;10524;48.132;8.518;2022-07-29T15:23:55;4.88;;;2.20;;
20725;SDS011;10524;48.132;8.518;2022-07-29T15:26:21;3.30;;;2.22;;
20725;SDS011;10524;48.132;8.518;2022-07-29T15:28:47;5.18;;;2.55;;
20725;SDS011;10524;48.132;8.518;2022-07-29T15:31:12;4.47;;;2.60;;
20725;SDS011;10524;48.132;8.518;2022-07-29T15:33:38;6.30;;;2.60;;
20725;SDS011;10524;48.132;8.518;2022-07-29T15:36:04;3.55;;;2.40;;
20725;SDS011;10524;48.132;8.518;2022-07-29T15:38:30;3.72;;;2.47;;
20725;SDS011;10524;48.132;8.518;2022-07-29T15:40:56;2.83;;;2.40;;
20725;SDS011;10524;48.132;8.518;2022-07-29T15:43:22;4.10;;;2.45;;
20725;SDS011;10524;48.132;8.518;2022-07-29T15:45:48;3.85;;;2.20;;
20725;SDS011;10524;48.132;8.518;2022-07-29T15:48:32;6.82;;;2.47;;
20725;SDS011;10524;48.132;8.518;2022-07-29T15:50:58;4.47;;;2.40;;
20725;SDS011;10524;48.132;8.518;2022-07-29T15:53:24;4.50;;;2.50;;